sensor_id;sensor_type;location;lat;lon;timestamp;pressure;altitude;pressure_sealevel;temperature;humidity
33422;BME280;19763;55.798;37.782;2023-02-23T00:01:20;144495.59;;;-11.53;69.14
33422;BME280;19763;55.798;37.782;2023-02-23T00:03:49;144490.56;;;-11.55;69.00
33422;BME280;19763;55.798;37.782;2023-02-23T00:06:18;144486.81;;;-11.57;67.81
33422;BME280;19763;55.798;37.782;2023-02-23T00:08:44;144498.09;;;-11.52;69.39
33422;BME280;19763;55.798;37.782;2023-02-23T00:11:12;144465.38;;;-11.66;69.09
33422;BME280;19763;55.798;37.782;2023-02-23T00:13:39;144477.97;;;-11.60;69.61
33422;BME280;19763;55.798;37.782;2023-02-23T00:16:07;144450.31;;;-11.72;68.61
33422;BME280;19763;55.798;37.782;2023-02-23T00:18:34;144466.66;;;-11.65;69.81
33422;BME280;19763;55.798;37.782;2023-02-23T00:21:32;144481.75;;;-11.59;69.39
33422;BME280;19763;55.798;37.782;2023-02-23T00:24:03;144495.59;;;-11.53;69.46
33422;BME280;19763;55.798;37.782;2023-02-23T00:26:31;144462.91;;;-11.67;68.61
33422;BME280;19763;55.798;37.782;2023-02-23T00:29:00;144494.34;;;-11.54;69.81
33422;BME280;19763;55.798;37.782;2023-02-23T00:31:27;144480.50;;;-11.59;69.50
33422;BME280;19763;55.798;37.782;2023-02-23T00:33:58;144456.59;;;-11.69;68.62
33422;BME280;19763;55.798;37.782;2023-02-23T00:36:28;144489.28;;;-11.56;69.67
33422;BME280;19763;55.798;37.782;2023-02-23T00:38:57;144384.94;;;-11.99;68.55
33422;BME280;19763;55.798;37.782;2023-02-23T00:41:24;144437.75;;;-11.77;69.57
33422;BME280;19763;55.798;37.782;2023-02-23T00:43:54;144428.94;;;-11.81;69.41
33422;BME280;19763;55.798;37.782;2023-02-23T00:46:21;144427.69;;;-11.81;70.01
33422;BME280;19763;55.798;37.782;2023-02-23T00:48:50;144442.75;;;-11.75;68.95
33422;BME280;19763;55.798;37.782;2023-02-23T00:51:17;144393.78;;;-11.95;68.87
33422;BME280;19763;55.798;37.782;2023-02-23T00:53:43;144460.38;;;-11.68;69.50
33422;BME280;19763;55.798;37.782;2023-02-23T00:56:11;144462.91;;;-11.67;68.42
33422;BME280;19763;55.798;37.782;2023-02-23T00:58:38;144464.13;;;-11.66;68.68
33422;BME280;19763;55.798;37.782;2023-02-23T01:01:08;144442.75;;;-11.75;68.50
33422;BME280;19763;55.798;37.782;2023-02-23T01:03:35;144442.75;;;-11.75;69.71
33422;BME280;19763;55.798;37.782;2023-02-23T01:06:03;144398.72;;;-11.93;69.44
33422;BME280;19763;55.798;37.782;2023-02-23T01:08:35;144454.06;;;-11.70;69.67
33422;BME280;19763;55.798;37.782;2023-02-23T01:11:09;144381.19;;;-12.00;70.37
33422;BME280;19763;55.798;37.782;2023-02-23T01:13:36;144422.63;;;-11.83;70.31
33422;BME280;19763;55.798;37.782;2023-02-23T01:16:07;144418.88;;;-11.85;69.45
33422;BME280;19763;55.798;37.782;2023-02-23T01:18:33;144411.31;;;-11.88;69.61
33422;BME280;19763;55.798;37.782;2023-02-23T01:20:59;144441.53;;;-11.75;69.25
33422;BME280;19763;55.798;37.782;2023-02-23T01:23:25;144393.78;;;-11.95;69.74
33422;BME280;19763;55.798;37.782;2023-02-23T01:25:51;144413.84;;;-11.87;69.32
33422;BME280;19763;55.798;37.782;2023-02-23T01:28:16;144413.84;;;-11.87;69.34
33422;BME280;19763;55.798;37.782;2023-02-23T01:30:42;144402.50;;;-11.91;68.91
33422;BME280;19763;55.798;37.782;2023-02-23T01:33:07;144418.88;;;-11.85;69.34
33422;BME280;19763;55.798;37.782;2023-02-23T01:35:33;144397.53;;;-11.93;69.66
33422;BME280;19763;55.798;37.782;2023-02-23T01:37:59;144382.47;;;-12.00;69.01
33422;BME280;19763;55.798;37.782;2023-02-23T01:40:26;144426.41;;;-11.82;69.20
33422;BME280;19763;55.798;37.782;2023-02-23T01:43:05;144388.72;;;-11.97;69.58
33422;BME280;19763;55.798;37.782;2023-02-23T01:45:38;144412.56;;;-11.87;69.91
33422;BME280;19763;55.798;37.782;2023-02-23T01:48:35;144415.09;;;-11.86;68.94
33422;BME280;19763;55.798;37.782;2023-02-23T01:51:06;144374.88;;;-12.03;70.05
33422;BME280;19763;55.798;37.782;2023-02-23T01:53:36;144366.09;;;-12.06;68.96
33422;BME280;19763;55.798;37.782;2023-02-23T01:56:10;144374.88;;;-12.03;70.02
33422;BME280;19763;55.798;37.782;2023-02-23T01:58:40;144416.34;;;-11.86;68.73
33422;BME280;19763;55.798;37.782;2023-02-23T02:01:10;144373.66;;;-12.03;70.20
33422;BME280;19763;55.798;37.782;2023-02-23T02:03:43;144390.00;;;-11.96;70.54
33422;BME280;19763;55.798;37.782;2023-02-23T02:06:12;144369.88;;;-12.05;70.62
33422;BME280;19763;55.798;37.782;2023-02-23T02:08:42;144402.50;;;-11.91;70.47
33422;BME280;19763;55.798;37.782;2023-02-23T02:11:11;144392.50;;;-11.95;69.67
33422;BME280;19763;55.798;37.782;2023-02-23T02:13:56;144383.72;;;-11.99;69.99
33422;BME280;19763;55.798;37.782;2023-02-23T02:26:01;144406.28;;;-11.90;70.55
33422;BME280;19763;55.798;37.782;2023-02-23T02:34:30;144432.69;;;-11.79;70.40
33422;BME280;19763;55.798;37.782;2023-02-23T02:39:58;144383.72;;;-11.99;69.27
33422;BME280;19763;55.798;37.782;2023-02-23T02:43:11;144374.88;;;-12.03;69.59
33422;BME280;19763;55.798;37.782;2023-02-23T02:45:45;144344.75;;;-12.15;69.23
33422;BME280;19763;55.798;37.782;2023-02-23T02:48:19;144351.03;;;-12.12;69.82
33422;BME280;19763;55.798;37.782;2023-02-23T02:50:56;144343.47;;;-12.16;69.62
33422;BME280;19763;55.798;37.782;2023-02-23T02:53:50;144352.28;;;-12.12;69.81
33422;BME280;19763;55.798;37.782;2023-02-23T02:56:21;144329.63;;;-12.21;70.58
33422;BME280;19763;55.798;37.782;2023-02-23T02:58:49;144383.72;;;-11.99;70.37
33422;BME280;19763;55.798;37.782;2023-02-23T03:01:16;144386.25;;;-11.98;70.58
33422;BME280;19763;55.798;37.782;2023-02-23T03:04:17;144352.28;;;-12.12;70.34
33422;BME280;19763;55.798;37.782;2023-02-23T03:07:10;144324.63;;;-12.23;69.60
33422;BME280;19763;55.798;37.782;2023-02-23T03:10:07;144367.34;;;-12.06;70.09
33422;BME280;19763;55.798;37.782;2023-02-23T03:19:52;144312.03;;;-12.28;71.00
33422;BME280;19763;55.798;37.782;2023-02-23T03:22:38;144286.91;;;-12.39;69.86
33422;BME280;19763;55.798;37.782;2023-02-23T03:28:31;144314.56;;;-12.27;69.50
33422;BME280;19763;55.798;37.782;2023-02-23T03:31:58;144322.09;;;-12.24;69.61
33422;BME280;19763;55.798;37.782;2023-02-23T03:34:57;144307.03;;;-12.30;70.52
33422;BME280;19763;55.798;37.782;2023-02-23T03:37:49;144288.19;;;-12.38;70.23
33422;BME280;19763;55.798;37.782;2023-02-23T03:40:38;144290.69;;;-12.37;70.58
33422;BME280;19763;55.798;37.782;2023-02-23T03:43:37;144285.66;;;-12.39;70.59
33422;BME280;19763;55.798;37.782;2023-02-23T03:46:24;144252.97;;;-12.53;70.27
33422;BME280;19763;55.798;37.782;2023-02-23T03:49:12;144245.44;;;-12.56;70.67
33422;BME280;19763;55.798;37.782;2023-02-23T03:52:06;144295.72;;;-12.35;69.53
33422;BME280;19763;55.798;37.782;2023-02-23T03:54:57;144242.91;;;-12.57;70.48
33422;BME280;19763;55.798;37.782;2023-02-23T03:57:44;144276.84;;;-12.43;69.96
33422;BME280;19763;55.798;37.782;2023-02-23T04:00:33;144273.09;;;-12.44;70.29
33422;BME280;19763;55.798;37.782;2023-02-23T04:03:19;144251.72;;;-12.53;70.17
33422;BME280;19763;55.798;37.782;2023-02-23T04:06:07;144301.97;;;-12.33;69.53
33422;BME280;19763;55.798;37.782;2023-02-23T04:08:57;144249.19;;;-12.54;69.70
33422;BME280;19763;55.798;37.782;2023-02-23T04:12:07;144261.78;;;-12.49;70.09
33422;BME280;19763;55.798;37.782;2023-02-23T04:15:00;144217.78;;;-12.67;69.90
33422;BME280;19763;55.798;37.782;2023-02-23T04:17:29;144220.31;;;-12.66;70.26
33422;BME280;19763;55.798;37.782;2023-02-23T04:19:55;144211.50;;;-12.70;69.44
33422;BME280;19763;55.798;37.782;2023-02-23T04:22:22;144224.06;;;-12.64;70.92
33422;BME280;19763;55.798;37.782;2023-02-23T04:24:48;144250.47;;;-12.54;70.90
33422;BME280;19763;55.798;37.782;2023-02-23T04:27:15;144259.25;;;-12.50;70.18
33422;BME280;19763;55.798;37.782;2023-02-23T04:29:40;144232.91;;;-12.61;71.03
33422;BME280;19763;55.798;37.782;2023-02-23T04:32:08;144193.91;;;-12.77;70.86
33422;BME280;19763;55.798;37.782;2023-02-23T04:34:36;144229.13;;;-12.62;70.50
33422;BME280;19763;55.798;37.782;2023-02-23T04:37:02;144229.13;;;-12.62;69.97
33422;BME280;19763;55.798;37.782;2023-02-23T04:39:27;144241.66;;;-12.57;70.14
33422;BME280;19763;55.798;37.782;2023-02-23T04:41:53;144236.66;;;-12.59;70.20
33422;BME280;19763;55.798;37.782;2023-02-23T04:44:19;144193.91;;;-12.77;70.42
33422;BME280;19763;55.798;37.782;2023-02-23T04:46:44;144226.59;;;-12.63;70.85
33422;BME280;19763;55.798;37.782;2023-02-23T04:49:10;144201.50;;;-12.74;70.11
33422;BME280;19763;55.798;37.782;2023-02-23T04:51:36;144205.25;;;-12.72;70.48
33422;BME280;19763;55.798;37.782;2023-02-23T04:54:03;144237.91;;;-12.59;70.23
33422;BME280;19763;55.798;37.782;2023-02-23T04:56:29;144251.72;;;-12.53;69.92
33422;BME280;19763;55.798;37.782;2023-02-23T04:58:55;144279.38;;;-12.42;69.87
33422;BME280;19763;55.798;37.782;2023-02-23T05:01:20;144250.47;;;-12.54;69.86
33422;BME280;19763;55.798;37.782;2023-02-23T05:03:49;144211.50;;;-12.70;70.34
33422;BME280;19763;55.798;37.782;2023-02-23T05:06:16;144265.56;;;-12.47;69.48
33422;BME280;19763;55.798;37.782;2023-02-23T05:08:42;144271.84;;;-12.45;69.31
33422;BME280;19763;55.798;37.782;2023-02-23T05:11:08;144269.31;;;-12.46;69.25
33422;BME280;19763;55.798;37.782;2023-02-23T05:13:34;144270.56;;;-12.45;68.92
33422;BME280;19763;55.798;37.782;2023-02-23T05:16:00;144252.97;;;-12.53;69.38
33422;BME280;19763;55.798;37.782;2023-02-23T05:18:26;144236.66;;;-12.59;70.07
33422;BME280;19763;55.798;37.782;2023-02-23T05:20:52;144301.97;;;-12.33;69.91
33422;BME280;19763;55.798;37.782;2023-02-23T05:23:19;144309.56;;;-12.29;69.48
33422;BME280;19763;55.798;37.782;2023-02-23T05:25:46;144314.56;;;-12.27;69.11
33422;BME280;19763;55.798;37.782;2023-02-23T05:28:11;144334.69;;;-12.19;68.67
33422;BME280;19763;55.798;37.782;2023-02-23T05:30:37;144325.88;;;-12.23;68.43
33422;BME280;19763;55.798;37.782;2023-02-23T05:33:03;144332.16;;;-12.20;68.04
33422;BME280;19763;55.798;37.782;2023-02-23T05:35:28;144342.22;;;-12.16;68.22
33422;BME280;19763;55.798;37.782;2023-02-23T05:37:54;144344.75;;;-12.15;68.18
33422;BME280;19763;55.798;37.782;2023-02-23T05:40:20;144298.22;;;-12.34;68.51
33422;BME280;19763;55.798;37.782;2023-02-23T05:42:45;144276.84;;;-12.43;68.22
33422;BME280;19763;55.798;37.782;2023-02-23T05:45:11;144312.03;;;-12.28;68.56
33422;BME280;19763;55.798;37.782;2023-02-23T05:47:36;144245.44;;;-12.56;68.24
33422;BME280;19763;55.798;37.782;2023-02-23T05:50:07;144339.69;;;-12.17;68.88
33422;BME280;19763;55.798;37.782;2023-02-23T05:52:36;144322.09;;;-12.24;67.99
33422;BME280;19763;55.798;37.782;2023-02-23T05:55:02;144361.06;;;-12.08;68.06
33422;BME280;19763;55.798;37.782;2023-02-23T05:57:29;144342.22;;;-12.16;68.39
33422;BME280;19763;55.798;37.782;2023-02-23T05:59:54;144348.50;;;-12.13;68.06
33422;BME280;19763;55.798;37.782;2023-02-23T06:02:20;144338.44;;;-12.18;67.35
33422;BME280;19763;55.798;37.782;2023-02-23T06:04:46;144402.50;;;-11.91;67.73
33422;BME280;19763;55.798;37.782;2023-02-23T06:07:12;144371.13;;;-12.04;67.35
33422;BME280;19763;55.798;37.782;2023-02-23T06:09:38;144333.44;;;-12.20;68.19
33422;BME280;19763;55.798;37.782;2023-02-23T06:12:04;144368.63;;;-12.05;68.49
33422;BME280;19763;55.798;37.782;2023-02-23T06:14:29;144382.47;;;-12.00;67.94
33422;BME280;19763;55.798;37.782;2023-02-23T06:16:55;144325.88;;;-12.23;68.21
33422;BME280;19763;55.798;37.782;2023-02-23T06:19:20;144353.53;;;-12.11;67.92
33422;BME280;19763;55.798;37.782;2023-02-23T06:21:46;144344.75;;;-12.15;67.96
33422;BME280;19763;55.798;37.782;2023-02-23T06:24:11;144383.72;;;-11.99;68.58
33422;BME280;19763;55.798;37.782;2023-02-23T06:26:37;144300.75;;;-12.33;68.78
33422;BME280;19763;55.798;37.782;2023-02-23T06:29:03;144384.94;;;-11.99;68.09
33422;BME280;19763;55.798;37.782;2023-02-23T06:31:28;144415.09;;;-11.86;68.06
33422;BME280;19763;55.798;37.782;2023-02-23T06:33:55;144433.94;;;-11.78;67.14
33422;BME280;19763;55.798;37.782;2023-02-23T06:36:20;144433.94;;;-11.78;67.70
33422;BME280;19763;55.798;37.782;2023-02-23T06:38:46;144484.28;;;-11.58;67.84
33422;BME280;19763;55.798;37.782;2023-02-23T06:41:11;144500.63;;;-11.51;68.04
33422;BME280;19763;55.798;37.782;2023-02-23T06:43:37;144508.19;;;-11.48;68.40
33422;BME280;19763;55.798;37.782;2023-02-23T06:46:03;144477.97;;;-11.60;68.39
33422;BME280;19763;55.798;37.782;2023-02-23T06:48:29;144528.31;;;-11.40;67.14
33422;BME280;19763;55.798;37.782;2023-02-23T06:50:58;144533.34;;;-11.38;67.13
33422;BME280;19763;55.798;37.782;2023-02-23T06:53:24;144605.06;;;-11.08;67.39
33422;BME280;19763;55.798;37.782;2023-02-23T06:55:49;144608.84;;;-11.07;67.85
33422;BME280;19763;55.798;37.782;2023-02-23T06:58:15;144626.44;;;-11.00;65.75
33422;BME280;19763;55.798;37.782;2023-02-23T07:00:41;144623.94;;;-11.01;68.31
33422;BME280;19763;55.798;37.782;2023-02-23T07:03:09;144598.78;;;-11.11;68.33
33422;BME280;19763;55.798;37.782;2023-02-23T07:05:35;144665.47;;;-10.84;67.03
33422;BME280;19763;55.798;37.782;2023-02-23T07:08:01;144691.88;;;-10.73;67.73
33422;BME280;19763;55.798;37.782;2023-02-23T07:10:28;144693.16;;;-10.72;67.51
33422;BME280;19763;55.798;37.782;2023-02-23T07:12:53;144675.53;;;-10.80;68.23
33422;BME280;19763;55.798;37.782;2023-02-23T07:15:19;144720.84;;;-10.61;67.87
33422;BME280;19763;55.798;37.782;2023-02-23T07:17:45;144739.72;;;-10.53;66.34
33422;BME280;19763;55.798;37.782;2023-02-23T07:20:14;144766.19;;;-10.43;67.95
33422;BME280;19763;55.798;37.782;2023-02-23T07:22:40;144762.41;;;-10.44;66.94
33422;BME280;19763;55.798;37.782;2023-02-23T07:25:06;144720.84;;;-10.61;68.60
33422;BME280;19763;55.798;37.782;2023-02-23T07:27:32;144772.50;;;-10.40;66.76
33422;BME280;19763;55.798;37.782;2023-02-23T07:29:58;144777.50;;;-10.38;69.09
33422;BME280;19763;55.798;37.782;2023-02-23T07:32:24;144751.03;;;-10.49;67.64
33422;BME280;19763;55.798;37.782;2023-02-23T07:34:49;144807.69;;;-10.26;69.15
33422;BME280;19763;55.798;37.782;2023-02-23T07:37:15;144841.66;;;-10.12;66.40
33422;BME280;19763;55.798;37.782;2023-02-23T07:39:41;144837.91;;;-10.13;68.92
33422;BME280;19763;55.798;37.782;2023-02-23T07:42:07;144853.03;;;-10.07;67.49
33422;BME280;19763;55.798;37.782;2023-02-23T07:44:32;144864.38;;;-10.02;68.87
33422;BME280;19763;55.798;37.782;2023-02-23T07:46:58;144899.63;;;-9.88;66.53
33422;BME280;19763;55.798;37.782;2023-02-23T07:49:24;144963.94;;;-9.62;67.99
33422;BME280;19763;55.798;37.782;2023-02-23T07:51:49;144968.94;;;-9.60;66.34
33422;BME280;19763;55.798;37.782;2023-02-23T07:54:15;144934.91;;;-9.74;68.59
33422;BME280;19763;55.798;37.782;2023-02-23T07:56:41;145006.75;;;-9.44;67.23
33422;BME280;19763;55.798;37.782;2023-02-23T07:59:06;145073.56;;;-9.17;67.57
33422;BME280;19763;55.798;37.782;2023-02-23T08:01:32;145060.94;;;-9.22;65.59
33422;BME280;19763;55.798;37.782;2023-02-23T08:03:58;145144.16;;;-8.88;66.02
33422;BME280;19763;55.798;37.782;2023-02-23T08:06:23;145198.44;;;-8.66;65.54
33422;BME280;19763;55.798;37.782;2023-02-23T08:08:49;145236.28;;;-8.51;64.49
33422;BME280;19763;55.798;37.782;2023-02-23T08:11:15;145294.22;;;-8.27;64.82
33422;BME280;19763;55.798;37.782;2023-02-23T08:13:40;145440.66;;;-7.67;62.96
33422;BME280;19763;55.798;37.782;2023-02-23T08:16:06;145438.13;;;-7.68;62.37
33422;BME280;19763;55.798;37.782;2023-02-23T08:18:32;145626.31;;;-6.91;60.15
33422;BME280;19763;55.798;37.782;2023-02-23T08:21:01;145724.88;;;-6.51;60.39
33422;BME280;19763;55.798;37.782;2023-02-23T08:23:32;145697.06;;;-6.63;58.88
33422;BME280;19763;55.798;37.782;2023-02-23T08:25:59;145724.88;;;-6.51;58.26
33422;BME280;19763;55.798;37.782;2023-02-23T08:28:26;145936.00;;;-5.65;58.49
33422;BME280;19763;55.798;37.782;2023-02-23T08:30:52;145867.69;;;-5.93;57.38
33422;BME280;19763;55.798;37.782;2023-02-23T08:33:17;145819.72;;;-6.13;57.34
33422;BME280;19763;55.798;37.782;2023-02-23T08:35:43;145920.78;;;-5.72;57.87
33422;BME280;19763;55.798;37.782;2023-02-23T08:38:09;146044.81;;;-5.21;57.44
33422;BME280;19763;55.798;37.782;2023-02-23T08:40:35;146029.63;;;-5.27;54.49
33422;BME280;19763;55.798;37.782;2023-02-23T08:43:00;146191.63;;;-4.61;54.63
33422;BME280;19763;55.798;37.782;2023-02-23T08:45:26;146277.72;;;-4.26;54.02
33422;BME280;19763;55.798;37.782;2023-02-23T08:47:54;146280.28;;;-4.25;53.04
33422;BME280;19763;55.798;37.782;2023-02-23T08:50:20;146289.16;;;-4.22;53.41
33422;BME280;19763;55.798;37.782;2023-02-23T08:52:46;146242.28;;;-4.41;53.04
33422;BME280;19763;55.798;37.782;2023-02-23T08:55:13;146320.81;;;-4.09;52.90
33422;BME280;19763;55.798;37.782;2023-02-23T08:57:40;146437.38;;;-3.61;53.09
33422;BME280;19763;55.798;37.782;2023-02-23T09:00:07;146496.94;;;-3.37;50.14
33422;BME280;19763;55.798;37.782;2023-02-23T09:02:39;146444.97;;;-3.58;51.75
33422;BME280;19763;55.798;37.782;2023-02-23T09:05:05;146546.38;;;-3.17;50.97
33422;BME280;19763;55.798;37.782;2023-02-23T09:07:31;146673.19;;;-2.66;50.78
33422;BME280;19763;55.798;37.782;2023-02-23T09:09:57;146749.31;;;-2.35;49.15
33422;BME280;19763;55.798;37.782;2023-02-23T09:12:23;146755.66;;;-2.32;46.44
33422;BME280;19763;55.798;37.782;2023-02-23T09:14:49;146850.84;;;-1.94;48.05
33422;BME280;19763;55.798;37.782;2023-02-23T09:17:16;146839.38;;;-1.98;50.02
33422;BME280;19763;55.798;37.782;2023-02-23T09:19:42;146863.50;;;-1.88;45.28
33422;BME280;19763;55.798;37.782;2023-02-23T09:22:08;146952.38;;;-1.52;47.19
33422;BME280;19763;55.798;37.782;2023-02-23T09:24:33;146796.25;;;-2.16;45.27
33422;BME280;19763;55.798;37.782;2023-02-23T09:27:00;146775.94;;;-2.24;44.43
33422;BME280;19763;55.798;37.782;2023-02-23T09:29:25;146802.59;;;-2.13;46.37
33422;BME280;19763;55.798;37.782;2023-02-23T09:31:51;146874.94;;;-1.84;47.23
33422;BME280;19763;55.798;37.782;2023-02-23T09:34:18;146962.50;;;-1.48;47.40
33422;BME280;19763;55.798;37.782;2023-02-23T09:36:44;146968.88;;;-1.46;45.99
33422;BME280;19763;55.798;37.782;2023-02-23T09:39:09;146944.72;;;-1.56;46.29
33422;BME280;19763;55.798;37.782;2023-02-23T09:49:48;146584.44;;;-3.02;48.00
33422;BME280;19763;55.798;37.782;2023-02-23T09:52:18;146559.09;;;-3.12;47.86
33422;BME280;19763;55.798;37.782;2023-02-23T09:54:45;146417.09;;;-3.70;49.28
33422;BME280;19763;55.798;37.782;2023-02-23T09:57:14;146399.34;;;-3.77;48.95
33422;BME280;19763;55.798;37.782;2023-02-23T09:59:41;146372.72;;;-3.88;51.08
33422;BME280;19763;55.798;37.782;2023-02-23T10:02:43;146219.50;;;-4.50;52.34
33422;BME280;19763;55.798;37.782;2023-02-23T10:05:16;146186.56;;;-4.63;52.58
33422;BME280;19763;55.798;37.782;2023-02-23T10:07:58;146113.13;;;-4.93;51.01
33422;BME280;19763;55.798;37.782;2023-02-23T10:13:14;146147.31;;;-4.79;53.21
33422;BME280;19763;55.798;37.782;2023-02-23T10:15:54;146162.50;;;-4.73;51.02
33422;BME280;19763;55.798;37.782;2023-02-23T10:18:32;146143.53;;;-4.81;51.77
33422;BME280;19763;55.798;37.782;2023-02-23T10:23:52;146148.56;;;-4.79;52.20
33422;BME280;19763;55.798;37.782;2023-02-23T10:26:23;146138.47;;;-4.83;53.27
33422;BME280;19763;55.798;37.782;2023-02-23T10:28:51;146132.13;;;-4.86;53.62
33422;BME280;19763;55.798;37.782;2023-02-23T10:31:29;146127.06;;;-4.88;52.41
33422;BME280;19763;55.798;37.782;2023-02-23T10:34:02;145999.25;;;-5.40;54.48
33422;BME280;19763;55.798;37.782;2023-02-23T10:36:36;146059.97;;;-5.15;54.22
33422;BME280;19763;55.798;37.782;2023-02-23T10:39:05;146087.81;;;-5.04;55.19
33422;BME280;19763;55.798;37.782;2023-02-23T10:41:32;146100.50;;;-4.98;53.92
33422;BME280;19763;55.798;37.782;2023-02-23T10:43:58;146123.25;;;-4.89;53.22
33422;BME280;19763;55.798;37.782;2023-02-23T10:46:30;146128.34;;;-4.87;52.63
33422;BME280;19763;55.798;37.782;2023-02-23T10:48:59;146065.06;;;-5.13;54.07
33422;BME280;19763;55.798;37.782;2023-02-23T10:51:29;146077.69;;;-5.08;55.09
33422;BME280;19763;55.798;37.782;2023-02-23T10:53:56;146019.50;;;-5.31;54.53
33422;BME280;19763;55.798;37.782;2023-02-23T10:56:22;145995.47;;;-5.41;54.05
33422;BME280;19763;55.798;37.782;2023-02-23T10:58:53;146011.88;;;-5.34;55.52
33422;BME280;19763;55.798;37.782;2023-02-23T11:01:40;146043.50;;;-5.22;55.76
33422;BME280;19763;55.798;37.782;2023-02-23T11:04:20;146032.13;;;-5.26;54.62
33422;BME280;19763;55.798;37.782;2023-02-23T11:06:47;146020.75;;;-5.31;54.67
33422;BME280;19763;55.798;37.782;2023-02-23T11:09:25;146075.19;;;-5.09;55.63
33422;BME280;19763;55.798;37.782;2023-02-23T11:14:51;146085.28;;;-5.05;54.72
33422;BME280;19763;55.798;37.782;2023-02-23T11:19:50;146109.31;;;-4.95;52.65
33422;BME280;19763;55.798;37.782;2023-02-23T11:22:23;146109.31;;;-4.95;55.73
33422;BME280;19763;55.798;37.782;2023-02-23T11:24:51;146056.19;;;-5.16;54.31
33422;BME280;19763;55.798;37.782;2023-02-23T11:27:23;146047.34;;;-5.20;54.96
33422;BME280;19763;55.798;37.782;2023-02-23T11:29:51;146077.69;;;-5.08;53.37
33422;BME280;19763;55.798;37.782;2023-02-23T11:32:30;146146.06;;;-4.80;53.81
33422;BME280;19763;55.798;37.782;2023-02-23T11:37:40;146096.69;;;-5.00;52.48
33422;BME280;19763;55.798;37.782;2023-02-23T11:45:30;146075.19;;;-5.09;53.29
33422;BME280;19763;55.798;37.782;2023-02-23T11:47:58;146065.06;;;-5.13;51.37
33422;BME280;19763;55.798;37.782;2023-02-23T11:50:32;146056.19;;;-5.16;53.67
33422;BME280;19763;55.798;37.782;2023-02-23T11:53:11;145987.88;;;-5.44;51.70
33422;BME280;19763;55.798;37.782;2023-02-23T11:55:47;146079.00;;;-5.07;51.40
33422;BME280;19763;55.798;37.782;2023-02-23T11:58:26;146075.19;;;-5.09;50.05
33422;BME280;19763;55.798;37.782;2023-02-23T12:01:02;146084.03;;;-5.05;51.73
33422;BME280;19763;55.798;37.782;2023-02-23T12:03:29;146123.25;;;-4.89;50.28
33422;BME280;19763;55.798;37.782;2023-02-23T12:05:57;146129.59;;;-4.87;52.60
33422;BME280;19763;55.798;37.782;2023-02-23T12:08:46;146077.69;;;-5.08;48.66
33422;BME280;19763;55.798;37.782;2023-02-23T12:11:18;146056.19;;;-5.16;50.43
33422;BME280;19763;55.798;37.782;2023-02-23T12:13:54;145979.00;;;-5.48;50.25
33422;BME280;19763;55.798;37.782;2023-02-23T12:16:26;146034.69;;;-5.25;50.74
33422;BME280;19763;55.798;37.782;2023-02-23T12:24:24;146030.88;;;-5.27;51.18
33422;BME280;19763;55.798;37.782;2023-02-23T12:32:46;146081.47;;;-5.06;51.80
33422;BME280;19763;55.798;37.782;2023-02-23T12:35:19;146044.81;;;-5.21;50.73
33422;BME280;19763;55.798;37.782;2023-02-23T12:37:55;146065.06;;;-5.13;50.47
33422;BME280;19763;55.798;37.782;2023-02-23T12:40:27;146100.50;;;-4.98;51.37
33422;BME280;19763;55.798;37.782;2023-02-23T12:42:59;146124.56;;;-4.89;50.91
33422;BME280;19763;55.798;37.782;2023-02-23T12:45:49;146120.75;;;-4.90;51.00
33422;BME280;19763;55.798;37.782;2023-02-23T12:51:35;146153.66;;;-4.77;49.99
33422;BME280;19763;55.798;37.782;2023-02-23T12:54:02;146201.78;;;-4.57;49.57
33422;BME280;19763;55.798;37.782;2023-02-23T13:02:03;146234.69;;;-4.44;50.38
33422;BME280;19763;55.798;37.782;2023-02-23T13:05:15;146140.97;;;-4.82;49.97
33422;BME280;19763;55.798;37.782;2023-02-23T13:08:24;146166.34;;;-4.72;50.70
33422;BME280;19763;55.798;37.782;2023-02-23T13:11:17;146206.81;;;-4.55;51.23
33422;BME280;19763;55.798;37.782;2023-02-23T13:16:31;146120.75;;;-4.90;53.54
33422;BME280;19763;55.798;37.782;2023-02-23T13:19:22;146082.78;;;-5.06;52.75
33422;BME280;19763;55.798;37.782;2023-02-23T13:21:57;146095.41;;;-5.00;53.51
33422;BME280;19763;55.798;37.782;2023-02-23T13:24:35;146101.75;;;-4.98;53.70
33422;BME280;19763;55.798;37.782;2023-02-23T13:27:29;146076.44;;;-5.08;52.28
33422;BME280;19763;55.798;37.782;2023-02-23T13:29:58;146106.84;;;-4.96;52.48
33422;BME280;19763;55.798;37.782;2023-02-23T13:32:27;146032.13;;;-5.26;52.17
33422;BME280;19763;55.798;37.782;2023-02-23T13:34:58;146057.44;;;-5.16;52.76
33422;BME280;19763;55.798;37.782;2023-02-23T13:37:32;146032.13;;;-5.26;52.96
33422;BME280;19763;55.798;37.782;2023-02-23T13:43:02;146067.56;;;-5.12;53.92
33422;BME280;19763;55.798;37.782;2023-02-23T13:45:42;146049.84;;;-5.19;53.21
33422;BME280;19763;55.798;37.782;2023-02-23T13:48:45;146029.63;;;-5.27;53.72
33422;BME280;19763;55.798;37.782;2023-02-23T13:51:36;146013.19;;;-5.34;54.54
33422;BME280;19763;55.798;37.782;2023-02-23T13:56:48;145997.97;;;-5.40;53.85
33422;BME280;19763;55.798;37.782;2023-02-23T13:59:27;146014.44;;;-5.33;54.08
33422;BME280;19763;55.798;37.782;2023-02-23T14:01:54;146006.84;;;-5.37;55.78
33422;BME280;19763;55.798;37.782;2023-02-23T14:06:57;145948.63;;;-5.60;54.88
33422;BME280;19763;55.798;37.782;2023-02-23T14:09:30;145942.34;;;-5.63;55.03
33422;BME280;19763;55.798;37.782;2023-02-23T14:14:46;145936.00;;;-5.65;56.74
33422;BME280;19763;55.798;37.782;2023-02-23T14:22:16;145918.28;;;-5.73;56.44
33422;BME280;19763;55.798;37.782;2023-02-23T14:25:37;145910.72;;;-5.76;55.47
33422;BME280;19763;55.798;37.782;2023-02-23T14:27:41;145865.19;;;-5.94;56.73
33422;BME280;19763;55.798;37.782;2023-02-23T14:32:43;145852.56;;;-5.99;58.51
33422;BME280;19763;55.798;37.782;2023-02-23T14:38:03;145866.44;;;-5.94;57.60